sensor_id;sensor_type;location;lat;lon;timestamp;temperature;humidity
30150;DHT22;16962;48.646;9.026;2023-04-04T00:00:08;-1.20;99.90
30150;DHT22;16962;48.646;9.026;2023-04-04T00:02:56;-1.20;99.90
30150;DHT22;16962;48.646;9.026;2023-04-04T00:05:49;-1.20;99.90
30150;DHT22;16962;48.646;9.026;2023-04-04T00:08:38;-1.20;99.90
30150;DHT22;16962;48.646;9.026;2023-04-04T00:11:26;-1.20;99.90
30150;DHT22;16962;48.646;9.026;2023-04-04T00:14:13;-1.30;99.90
30150;DHT22;16962;48.646;9.026;2023-04-04T00:17:03;-1.30;99.90
30150;DHT22;16962;48.646;9.026;2023-04-04T00:20:05;-1.30;99.90
30150;DHT22;16962;48.646;9.026;2023-04-04T00:22:53;-1.30;99.90
30150;DHT22;16962;48.646;9.026;2023-04-04T00:25:40;-1.20;99.90
30150;DHT22;16962;48.646;9.026;2023-04-04T00:28:37;-1.30;99.90
30150;DHT22;16962;48.646;9.026;2023-04-04T00:31:25;-1.30;99.90
30150;DHT22;16962;48.646;9.026;2023-04-04T00:34:14;-1.30;99.90
30150;DHT22;16962;48.646;9.026;2023-04-04T00:37:01;-1.30;99.90
30150;DHT22;16962;48.646;9.026;2023-04-04T00:39:49;-1.40;99.90
30150;DHT22;16962;48.646;9.026;2023-04-04T00:42:40;-1.40;99.90
30150;DHT22;16962;48.646;9.026;2023-04-04T00:45:33;-1.40;99.90
30150;DHT22;16962;48.646;9.026;2023-04-04T00:48:21;-1.40;99.90
30150;DHT22;16962;48.646;9.026;2023-04-04T00:51:13;-1.40;99.90
30150;DHT22;16962;48.646;9.026;2023-04-04T00:54:03;-1.50;99.90
30150;DHT22;16962;48.646;9.026;2023-04-04T00:56:51;-1.50;99.90
30150;DHT22;16962;48.646;9.026;2023-04-04T00:59:41;-1.60;99.90
30150;DHT22;16962;48.646;9.026;2023-04-04T01:02:29;-1.60;99.90
30150;DHT22;16962;48.646;9.026;2023-04-04T01:05:17;-1.60;99.90
30150;DHT22;16962;48.646;9.026;2023-04-04T01:08:07;-1.60;99.90
30150;DHT22;16962;48.646;9.026;2023-04-04T01:11:02;-1.60;99.90
30150;DHT22;16962;48.646;9.026;2023-04-04T01:13:53;-1.60;99.90
30150;DHT22;16962;48.646;9.026;2023-04-04T01:16:41;-1.70;99.90
30150;DHT22;16962;48.646;9.026;2023-04-04T01:19:40;-1.70;99.90
30150;DHT22;16962;48.646;9.026;2023-04-04T01:22:35;-1.60;99.90
30150;DHT22;16962;48.646;9.026;2023-04-04T01:25:29;-1.70;99.90
30150;DHT22;16962;48.646;9.026;2023-04-04T01:28:20;-1.60;99.90
30150;DHT22;16962;48.646;9.026;2023-04-04T01:31:14;-1.60;99.90
30150;DHT22;16962;48.646;9.026;2023-04-04T01:40:20;-1.70;99.90
30150;DHT22;16962;48.646;9.026;2023-04-04T01:43:10;-1.70;99.90
30150;DHT22;16962;48.646;9.026;2023-04-04T01:46:00;-1.70;99.90
30150;DHT22;16962;48.646;9.026;2023-04-04T01:48:48;-1.80;99.90
30150;DHT22;16962;48.646;9.026;2023-04-04T01:51:36;-1.90;99.90
30150;DHT22;16962;48.646;9.026;2023-04-04T01:54:24;-1.90;99.90
30150;DHT22;16962;48.646;9.026;2023-04-04T01:57:21;-1.90;99.90
30150;DHT22;16962;48.646;9.026;2023-04-04T02:00:10;-2.00;99.90
30150;DHT22;16962;48.646;9.026;2023-04-04T02:02:57;-2.00;99.90
30150;DHT22;16962;48.646;9.026;2023-04-04T02:05:48;-2.10;99.90
30150;DHT22;16962;48.646;9.026;2023-04-04T02:08:35;-2.20;99.90
30150;DHT22;16962;48.646;9.026;2023-04-04T02:11:24;-2.30;99.90
30150;DHT22;16962;48.646;9.026;2023-04-04T02:14:11;-2.30;99.90
30150;DHT22;16962;48.646;9.026;2023-04-04T02:16:59;-2.30;99.90
30150;DHT22;16962;48.646;9.026;2023-04-04T02:19:46;-2.40;99.90
30150;DHT22;16962;48.646;9.026;2023-04-04T02:22:36;-2.40;99.90
30150;DHT22;16962;48.646;9.026;2023-04-04T02:25:27;-2.50;99.90
30150;DHT22;16962;48.646;9.026;2023-04-04T02:28:27;-2.50;99.90
30150;DHT22;16962;48.646;9.026;2023-04-04T02:31:17;-2.60;99.90
30150;DHT22;16962;48.646;9.026;2023-04-04T02:34:30;-2.60;99.90
30150;DHT22;16962;48.646;9.026;2023-04-04T02:37:30;-2.60;99.90
30150;DHT22;16962;48.646;9.026;2023-04-04T02:40:30;-2.70;99.90
30150;DHT22;16962;48.646;9.026;2023-04-04T02:43:48;-2.70;99.90
30150;DHT22;16962;48.646;9.026;2023-04-04T02:46:43;-2.80;99.90
30150;DHT22;16962;48.646;9.026;2023-04-04T02:49:36;-2.80;99.90
30150;DHT22;16962;48.646;9.026;2023-04-04T02:52:26;-2.80;99.90
30150;DHT22;16962;48.646;9.026;2023-04-04T02:55:18;-2.80;99.90
30150;DHT22;16962;48.646;9.026;2023-04-04T02:58:05;-2.90;99.90
30150;DHT22;16962;48.646;9.026;2023-04-04T03:01:10;-3.00;99.90
30150;DHT22;16962;48.646;9.026;2023-04-04T03:04:03;-2.90;99.90
30150;DHT22;16962;48.646;9.026;2023-04-04T03:06:53;-2.90;99.90
30150;DHT22;16962;48.646;9.026;2023-04-04T03:09:40;-2.90;99.90
30150;DHT22;16962;48.646;9.026;2023-04-04T03:12:31;-2.90;99.90
30150;DHT22;16962;48.646;9.026;2023-04-04T03:15:18;-2.80;99.90
30150;DHT22;16962;48.646;9.026;2023-04-04T03:18:07;-2.80;99.90
30150;DHT22;16962;48.646;9.026;2023-04-04T03:20:55;-2.80;99.90
30150;DHT22;16962;48.646;9.026;2023-04-04T03:23:42;-2.70;99.90
30150;DHT22;16962;48.646;9.026;2023-04-04T03:26:35;-2.60;99.90
30150;DHT22;16962;48.646;9.026;2023-04-04T03:29:23;-2.70;99.90
30150;DHT22;16962;48.646;9.026;2023-04-04T03:32:11;-2.60;99.90
30150;DHT22;16962;48.646;9.026;2023-04-04T03:34:58;-2.60;99.90
30150;DHT22;16962;48.646;9.026;2023-04-04T03:37:46;-2.60;99.90
30150;DHT22;16962;48.646;9.026;2023-04-04T03:40:34;-2.60;99.90
30150;DHT22;16962;48.646;9.026;2023-04-04T03:43:21;-2.60;99.90
30150;DHT22;16962;48.646;9.026;2023-04-04T03:46:09;-2.60;99.90
30150;DHT22;16962;48.646;9.026;2023-04-04T03:48:56;-2.60;99.90
30150;DHT22;16962;48.646;9.026;2023-04-04T03:51:43;-2.60;99.90
30150;DHT22;16962;48.646;9.026;2023-04-04T03:54:31;-2.70;99.90
30150;DHT22;16962;48.646;9.026;2023-04-04T03:57:19;-2.70;99.90
30150;DHT22;16962;48.646;9.026;2023-04-04T04:00:06;-2.70;99.90
30150;DHT22;16962;48.646;9.026;2023-04-04T04:03:00;-2.70;99.90
30150;DHT22;16962;48.646;9.026;2023-04-04T04:05:47;-2.70;99.90
30150;DHT22;16962;48.646;9.026;2023-04-04T04:08:36;-2.70;99.90
30150;DHT22;16962;48.646;9.026;2023-04-04T04:11:23;-2.80;99.90
30150;DHT22;16962;48.646;9.026;2023-04-04T04:14:13;-2.80;99.90
30150;DHT22;16962;48.646;9.026;2023-04-04T04:17:01;-2.90;99.90
30150;DHT22;16962;48.646;9.026;2023-04-04T04:19:48;-2.90;99.90
30150;DHT22;16962;48.646;9.026;2023-04-04T04:22:40;-2.80;99.90
30150;DHT22;16962;48.646;9.026;2023-04-04T04:25:31;-2.80;99.90
30150;DHT22;16962;48.646;9.026;2023-04-04T04:28:19;-2.90;99.90
30150;DHT22;16962;48.646;9.026;2023-04-04T04:31:09;-2.90;99.90
30150;DHT22;16962;48.646;9.026;2023-04-04T04:38:15;-2.90;99.90
30150;DHT22;16962;48.646;9.026;2023-04-04T04:53:20;-3.10;1.00
30150;DHT22;16962;48.646;9.026;2023-04-04T04:56:38;-3.10;1.00
30150;DHT22;16962;48.646;9.026;2023-04-04T05:03:32;-3.00;1.00
30150;DHT22;16962;48.646;9.026;2023-04-04T05:06:19;-3.00;1.00
30150;DHT22;16962;48.646;9.026;2023-04-04T05:09:07;-3.00;1.00
30150;DHT22;16962;48.646;9.026;2023-04-04T05:12:02;-2.90;1.00
30150;DHT22;16962;48.646;9.026;2023-04-04T05:14:50;-3.00;1.00
30150;DHT22;16962;48.646;9.026;2023-04-04T05:17:37;-2.90;1.00
30150;DHT22;16962;48.646;9.026;2023-04-04T05:20:25;-3.00;1.00
30150;DHT22;16962;48.646;9.026;2023-04-04T05:23:17;-2.90;1.00
30150;DHT22;16962;48.646;9.026;2023-04-04T05:26:05;-2.90;1.00
30150;DHT22;16962;48.646;9.026;2023-04-04T05:28:52;-2.80;1.00
30150;DHT22;16962;48.646;9.026;2023-04-04T05:31:40;-2.80;1.00
30150;DHT22;16962;48.646;9.026;2023-04-04T05:34:39;-2.80;1.00
30150;DHT22;16962;48.646;9.026;2023-04-04T05:37:27;-2.70;1.00
30150;DHT22;16962;48.646;9.026;2023-04-04T05:40:14;-2.60;1.00
30150;DHT22;16962;48.646;9.026;2023-04-04T05:43:03;-2.60;1.00
30150;DHT22;16962;48.646;9.026;2023-04-04T05:46:00;-2.50;1.00
30150;DHT22;16962;48.646;9.026;2023-04-04T05:54:28;-2.30;99.90
30150;DHT22;16962;48.646;9.026;2023-04-04T06:01:06;-2.10;99.90
30150;DHT22;16962;48.646;9.026;2023-04-04T06:04:08;-2.10;99.90
30150;DHT22;16962;48.646;9.026;2023-04-04T06:07:01;-2.00;99.90
30150;DHT22;16962;48.646;9.026;2023-04-04T06:10:12;-2.00;99.90
30150;DHT22;16962;48.646;9.026;2023-04-04T06:13:25;-1.90;99.90
30150;DHT22;16962;48.646;9.026;2023-04-04T06:29:09;-1.40;99.90
30150;DHT22;16962;48.646;9.026;2023-04-04T07:05:43;0.50;99.90
30150;DHT22;16962;48.646;9.026;2023-04-04T07:09:05;0.70;99.90
30150;DHT22;16962;48.646;9.026;2023-04-04T07:12:16;0.90;99.90
30150;DHT22;16962;48.646;9.026;2023-04-04T07:15:25;1.10;99.90
30150;DHT22;16962;48.646;9.026;2023-04-04T07:33:36;2.00;99.90
30150;DHT22;16962;48.646;9.026;2023-04-04T07:44:32;2.50;99.90
30150;DHT22;16962;48.646;9.026;2023-04-04T07:52:47;2.30;99.90
30150;DHT22;16962;48.646;9.026;2023-04-04T08:17:07;5.40;98.80
30150;DHT22;16962;48.646;9.026;2023-04-04T08:37:54;7.30;63.60
30150;DHT22;16962;48.646;9.026;2023-04-04T08:41:12;7.20;54.80
30150;DHT22;16962;48.646;9.026;2023-04-04T08:44:28;7.20;52.60
30150;DHT22;16962;48.646;9.026;2023-04-04T08:47:34;7.10;47.70
30150;DHT22;16962;48.646;9.026;2023-04-04T08:51:18;6.90;38.30
30150;DHT22;16962;48.646;9.026;2023-04-04T08:58:10;7.50;40.90
30150;DHT22;16962;48.646;9.026;2023-04-04T10:04:08;8.40;1.00
30150;DHT22;16962;48.646;9.026;2023-04-04T10:07:01;8.10;1.00
30150;DHT22;16962;48.646;9.026;2023-04-04T10:18:57;10.00;1.00
30150;DHT22;16962;48.646;9.026;2023-04-04T10:26:33;11.50;1.00
30150;DHT22;16962;48.646;9.026;2023-04-04T10:29:40;11.30;1.00
30150;DHT22;16962;48.646;9.026;2023-04-04T10:33:00;11.50;1.00
30150;DHT22;16962;48.646;9.026;2023-04-04T10:36:52;11.90;1.00
30150;DHT22;16962;48.646;9.026;2023-04-04T10:40:43;12.00;1.00
30150;DHT22;16962;48.646;9.026;2023-04-04T11:37:17;14.10;1.00
30150;DHT22;16962;48.646;9.026;2023-04-04T11:40:16;14.00;1.00
30150;DHT22;16962;48.646;9.026;2023-04-04T11:44:27;13.90;1.00
30150;DHT22;16962;48.646;9.026;2023-04-04T11:52:17;13.50;1.00
30150;DHT22;16962;48.646;9.026;2023-04-04T11:56:02;12.80;1.00
30150;DHT22;16962;48.646;9.026;2023-04-04T12:04:10;13.30;1.00
30150;DHT22;16962;48.646;9.026;2023-04-04T12:08:13;13.80;1.00
30150;DHT22;16962;48.646;9.026;2023-04-04T13:08:13;13.40;1.00
30150;DHT22;16962;48.646;9.026;2023-04-04T13:56:50;14.10;1.00
30150;DHT22;16962;48.646;9.026;2023-04-04T14:00:43;15.20;1.00
30150;DHT22;16962;48.646;9.026;2023-04-04T14:04:20;14.40;1.00
30150;DHT22;16962;48.646;9.026;2023-04-04T14:15:42;15.10;1.00
30150;DHT22;16962;48.646;9.026;2023-04-04T14:18:39;14.40;1.00
30150;DHT22;16962;48.646;9.026;2023-04-04T14:21:49;13.70;1.00
30150;DHT22;16962;48.646;9.026;2023-04-04T14:24:38;14.50;1.00
30150;DHT22;16962;48.646;9.026;2023-04-04T14:27:33;14.00;1.00
30150;DHT22;16962;48.646;9.026;2023-04-04T14:30:25;13.70;1.00
30150;DHT22;16962;48.646;9.026;2023-04-04T14:33:13;13.60;1.00
30150;DHT22;16962;48.646;9.026;2023-04-04T14:36:01;14.20;1.00
30150;DHT22;16962;48.646;9.026;2023-04-04T14:39:25;13.80;1.00
30150;DHT22;16962;48.646;9.026;2023-04-04T14:45:39;14.10;1.00
30150;DHT22;16962;48.646;9.026;2023-04-04T14:48:28;14.60;1.00
30150;DHT22;16962;48.646;9.026;2023-04-04T14:51:15;14.10;1.00
30150;DHT22;16962;48.646;9.026;2023-04-04T14:54:06;13.70;1.00
30150;DHT22;16962;48.646;9.026;2023-04-04T14:56:53;13.70;1.00
30150;DHT22;16962;48.646;9.026;2023-04-04T14:59:41;13.00;1.00
30150;DHT22;16962;48.646;9.026;2023-04-04T15:02:29;12.90;1.00
30150;DHT22;16962;48.646;9.026;2023-04-04T15:05:18;12.50;1.00
30150;DHT22;16962;48.646;9.026;2023-04-04T15:08:05;12.70;1.00
30150;DHT22;16962;48.646;9.026;2023-04-04T15:11:09;12.40;1.00
30150;DHT22;16962;48.646;9.026;2023-04-04T15:18:32;13.30;1.00
30150;DHT22;16962;48.646;9.026;2023-04-04T15:22:03;14.40;1.00
30150;DHT22;16962;48.646;9.026;2023-04-04T15:25:02;14.50;1.00
30150;DHT22;16962;48.646;9.026;2023-04-04T15:27:54;13.40;1.00
30150;DHT22;16962;48.646;9.026;2023-04-04T15:31:00;13.50;1.00
30150;DHT22;16962;48.646;9.026;2023-04-04T15:33:52;13.20;1.00
30150;DHT22;16962;48.646;9.026;2023-04-04T15:36:41;12.80;1.00
30150;DHT22;16962;48.646;9.026;2023-04-04T15:39:33;12.20;1.00
30150;DHT22;16962;48.646;9.026;2023-04-04T15:42:36;11.90;1.00
30150;DHT22;16962;48.646;9.026;2023-04-04T15:49:39;12.20;1.00
30150;DHT22;16962;48.646;9.026;2023-04-04T15:53:06;12.90;1.00
30150;DHT22;16962;48.646;9.026;2023-04-04T15:56:40;13.20;1.00
30150;DHT22;16962;48.646;9.026;2023-04-04T15:59:42;12.70;1.00
30150;DHT22;16962;48.646;9.026;2023-04-04T16:02:38;11.70;1.00
30150;DHT22;16962;48.646;9.026;2023-04-04T16:05:29;11.60;1.00
30150;DHT22;16962;48.646;9.026;2023-04-04T16:08:21;11.00;1.00
30150;DHT22;16962;48.646;9.026;2023-04-04T16:15:00;11.30;1.00
30150;DHT22;16962;48.646;9.026;2023-04-04T16:18:06;10.80;1.00
30150;DHT22;16962;48.646;9.026;2023-04-04T16:21:16;10.40;1.00
30150;DHT22;16962;48.646;9.026;2023-04-04T16:24:34;10.70;1.00
30150;DHT22;16962;48.646;9.026;2023-04-04T16:27:43;10.40;1.00
30150;DHT22;16962;48.646;9.026;2023-04-04T16:30:48;10.70;1.00
30150;DHT22;16962;48.646;9.026;2023-04-04T16:33:51;10.40;1.00
30150;DHT22;16962;48.646;9.026;2023-04-04T16:36:51;10.40;1.00
30150;DHT22;16962;48.646;9.026;2023-04-04T16:39:49;9.30;1.00
30150;DHT22;16962;48.646;9.026;2023-04-04T16:42:38;8.20;1.00
30150;DHT22;16962;48.646;9.026;2023-04-04T16:45:27;7.30;1.00
30150;DHT22;16962;48.646;9.026;2023-04-04T16:48:15;6.70;1.00
30150;DHT22;16962;48.646;9.026;2023-04-04T16:51:05;6.40;1.00
30150;DHT22;16962;48.646;9.026;2023-04-04T16:54:01;6.10;1.00
30150;DHT22;16962;48.646;9.026;2023-04-04T16:56:48;5.90;1.00
30150;DHT22;16962;48.646;9.026;2023-04-04T16:59:36;5.80;1.00
30150;DHT22;16962;48.646;9.026;2023-04-04T17:02:24;5.80;1.00
30150;DHT22;16962;48.646;9.026;2023-04-04T17:05:13;5.70;1.00
30150;DHT22;16962;48.646;9.026;2023-04-04T17:08:02;5.60;1.00
30150;DHT22;16962;48.646;9.026;2023-04-04T17:10:50;5.50;1.00
30150;DHT22;16962;48.646;9.026;2023-04-04T17:13:39;5.50;1.00
30150;DHT22;16962;48.646;9.026;2023-04-04T17:16:39;5.40;1.00
30150;DHT22;16962;48.646;9.026;2023-04-04T17:19:36;5.20;1.00
30150;DHT22;16962;48.646;9.026;2023-04-04T17:22:25;5.20;1.00
30150;DHT22;16962;48.646;9.026;2023-04-04T17:25:13;5.00;1.00
30150;DHT22;16962;48.646;9.026;2023-04-04T17:28:00;4.90;1.00
30150;DHT22;16962;48.646;9.026;2023-04-04T17:30:50;4.80;1.00
30150;DHT22;16962;48.646;9.026;2023-04-04T17:33:43;4.70;1.00
30150;DHT22;16962;48.646;9.026;2023-04-04T17:36:41;4.60;1.00
30150;DHT22;16962;48.646;9.026;2023-04-04T17:39:33;4.60;1.00
30150;DHT22;16962;48.646;9.026;2023-04-04T17:42:23;4.40;1.00
30150;DHT22;16962;48.646;9.026;2023-04-04T17:45:24;4.30;1.00
30150;DHT22;16962;48.646;9.026;2023-04-04T17:48:13;4.20;1.00
30150;DHT22;16962;48.646;9.026;2023-04-04T17:51:02;4.00;1.00
30150;DHT22;16962;48.646;9.026;2023-04-04T17:53:53;3.90;1.00
30150;DHT22;16962;48.646;9.026;2023-04-04T17:56:43;3.80;1.00
30150;DHT22;16962;48.646;9.026;2023-04-04T17:59:37;3.80;1.00
30150;DHT22;16962;48.646;9.026;2023-04-04T18:02:39;3.70;1.00
30150;DHT22;16962;48.646;9.026;2023-04-04T18:05:28;3.60;1.00
30150;DHT22;16962;48.646;9.026;2023-04-04T18:08:15;3.60;1.00
30150;DHT22;16962;48.646;9.026;2023-04-04T18:11:06;3.50;1.00
30150;DHT22;16962;48.646;9.026;2023-04-04T18:14:04;3.40;1.00
30150;DHT22;16962;48.646;9.026;2023-04-04T18:16:52;3.30;1.00
30150;DHT22;16962;48.646;9.026;2023-04-04T18:20:22;3.20;1.00
30150;DHT22;16962;48.646;9.026;2023-04-04T18:23:39;3.20;1.00
30150;DHT22;16962;48.646;9.026;2023-04-04T18:26:32;3.00;1.00
30150;DHT22;16962;48.646;9.026;2023-04-04T18:29:20;2.90;1.00
30150;DHT22;16962;48.646;9.026;2023-04-04T18:32:12;2.80;1.00
30150;DHT22;16962;48.646;9.026;2023-04-04T18:35:21;2.60;1.00
30150;DHT22;16962;48.646;9.026;2023-04-04T18:38:12;2.50;1.00
30150;DHT22;16962;48.646;9.026;2023-04-04T18:41:16;2.60;1.00
30150;DHT22;16962;48.646;9.026;2023-04-04T18:44:05;2.50;1.00
30150;DHT22;16962;48.646;9.026;2023-04-04T18:46:55;2.50;1.00
30150;DHT22;16962;48.646;9.026;2023-04-04T18:49:45;2.50;1.00
30150;DHT22;16962;48.646;9.026;2023-04-04T18:52:35;2.40;1.00
30150;DHT22;16962;48.646;9.026;2023-04-04T18:55:23;2.40;1.00
30150;DHT22;16962;48.646;9.026;2023-04-04T18:58:11;2.30;1.00
30150;DHT22;16962;48.646;9.026;2023-04-04T19:01:05;2.20;1.00
30150;DHT22;16962;48.646;9.026;2023-04-04T19:03:54;2.20;1.00
30150;DHT22;16962;48.646;9.026;2023-04-04T19:06:44;2.20;1.00
30150;DHT22;16962;48.646;9.026;2023-04-04T19:09:34;2.30;1.00
30150;DHT22;16962;48.646;9.026;2023-04-04T19:12:22;2.20;1.00
30150;DHT22;16962;48.646;9.026;2023-04-04T19:15:10;2.10;1.00
30150;DHT22;16962;48.646;9.026;2023-04-04T19:17:58;2.00;1.00
30150;DHT22;16962;48.646;9.026;2023-04-04T19:20:49;1.90;1.00
30150;DHT22;16962;48.646;9.026;2023-04-04T19:23:38;1.80;1.00
30150;DHT22;16962;48.646;9.026;2023-04-04T19:26:31;1.80;1.00
30150;DHT22;16962;48.646;9.026;2023-04-04T19:29:21;1.80;1.00
30150;DHT22;16962;48.646;9.026;2023-04-04T19:32:16;1.80;1.00
30150;DHT22;16962;48.646;9.026;2023-04-04T19:35:19;1.80;1.00
30150;DHT22;16962;48.646;9.026;2023-04-04T19:38:07;1.80;1.00
30150;DHT22;16962;48.646;9.026;2023-04-04T19:40:59;1.70;1.00
30150;DHT22;16962;48.646;9.026;2023-04-04T19:43:49;1.70;1.00
30150;DHT22;16962;48.646;9.026;2023-04-04T19:46:46;1.60;1.00
30150;DHT22;16962;48.646;9.026;2023-04-04T19:49:36;1.60;1.00
30150;DHT22;16962;48.646;9.026;2023-04-04T19:52:26;1.60;1.00
30150;DHT22;16962;48.646;9.026;2023-04-04T19:55:36;1.50;1.00
30150;DHT22;16962;48.646;9.026;2023-04-04T19:58:30;1.50;1.00
30150;DHT22;16962;48.646;9.026;2023-04-04T20:01:23;1.50;9.70
30150;DHT22;16962;48.646;9.026;2023-04-04T20:04:15;1.50;1.60
30150;DHT22;16962;48.646;9.026;2023-04-04T20:07:03;1.40;3.80
30150;DHT22;16962;48.646;9.026;2023-04-04T20:09:51;1.40;4.30
30150;DHT22;16962;48.646;9.026;2023-04-04T20:12:39;1.40;5.50
30150;DHT22;16962;48.646;9.026;2023-04-04T20:18:36;1.30;11.30
30150;DHT22;16962;48.646;9.026;2023-04-04T20:21:27;1.20;14.30
30150;DHT22;16962;48.646;9.026;2023-04-04T20:24:20;1.20;15.90
30150;DHT22;16962;48.646;9.026;2023-04-04T20:27:09;1.20;15.60
30150;DHT22;16962;48.646;9.026;2023-04-04T20:29:57;1.20;18.00
30150;DHT22;16962;48.646;9.026;2023-04-04T20:32:47;1.20;19.50
30150;DHT22;16962;48.646;9.026;2023-04-04T20:35:37;1.20;21.50
30150;DHT22;16962;48.646;9.026;2023-04-04T20:38:33;1.20;16.20
30150;DHT22;16962;48.646;9.026;2023-04-04T20:41:22;1.10;23.60
30150;DHT22;16962;48.646;9.026;2023-04-04T20:44:17;1.10;25.00
30150;DHT22;16962;48.646;9.026;2023-04-04T20:47:43;1.10;24.10
30150;DHT22;16962;48.646;9.026;2023-04-04T20:53:22;1.00;27.90
30150;DHT22;16962;48.646;9.026;2023-04-04T20:56:43;0.90;29.20
30150;DHT22;16962;48.646;9.026;2023-04-04T20:59:35;0.80;32.40
30150;DHT22;16962;48.646;9.026;2023-04-04T21:02:29;0.80;36.00
30150;DHT22;16962;48.646;9.026;2023-04-04T21:05:30;0.70;38.70
30150;DHT22;16962;48.646;9.026;2023-04-04T21:11:11;0.70;48.00
30150;DHT22;16962;48.646;9.026;2023-04-04T21:13:59;0.70;48.90
30150;DHT22;16962;48.646;9.026;2023-04-04T21:16:46;0.60;49.70
30150;DHT22;16962;48.646;9.026;2023-04-04T21:19:36;0.50;53.50
30150;DHT22;16962;48.646;9.026;2023-04-04T21:22:23;0.40;57.20
30150;DHT22;16962;48.646;9.026;2023-04-04T21:25:41;0.30;60.40
30150;DHT22;16962;48.646;9.026;2023-04-04T21:28:33;0.10;64.50
30150;DHT22;16962;48.646;9.026;2023-04-04T21:31:24;0.00;72.30
30150;DHT22;16962;48.646;9.026;2023-04-04T21:34:17;-0.10;77.90
30150;DHT22;16962;48.646;9.026;2023-04-04T21:37:06;-0.10;90.10
30150;DHT22;16962;48.646;9.026;2023-04-04T21:39:56;-0.20;93.80
30150;DHT22;16962;48.646;9.026;2023-04-04T21:42:46;-0.20;97.10
30150;DHT22;16962;48.646;9.026;2023-04-04T21:45:34;-0.30;99.70
30150;DHT22;16962;48.646;9.026;2023-04-04T21:48:23;-0.20;99.90
30150;DHT22;16962;48.646;9.026;2023-04-04T21:51:15;-0.20;99.90
30150;DHT22;16962;48.646;9.026;2023-04-04T21:58:13;-0.30;99.90
30150;DHT22;16962;48.646;9.026;2023-04-04T22:04:12;-0.40;99.90
30150;DHT22;16962;48.646;9.026;2023-04-04T22:07:23;-0.40;99.90
30150;DHT22;16962;48.646;9.026;2023-04-04T22:10:17;-0.50;99.90
30150;DHT22;16962;48.646;9.026;2023-04-04T22:13:22;-0.60;99.90
30150;DHT22;16962;48.646;9.026;2023-04-04T22:16:22;-0.60;99.90
30150;DHT22;16962;48.646;9.026;2023-04-04T22:19:14;-0.60;99.90
30150;DHT22;16962;48.646;9.026;2023-04-04T22:22:03;-0.70;99.90
30150;DHT22;16962;48.646;9.026;2023-04-04T22:24:53;-0.50;99.90
30150;DHT22;16962;48.646;9.026;2023-04-04T22:27:51;-0.50;99.90
30150;DHT22;16962;48.646;9.026;2023-04-04T22:30:41;-0.50;99.90
30150;DHT22;16962;48.646;9.026;2023-04-04T22:37:00;-0.50;99.90
30150;DHT22;16962;48.646;9.026;2023-04-04T22:39:51;-0.50;99.90
30150;DHT22;16962;48.646;9.026;2023-04-04T22:42:44;-0.60;99.90
30150;DHT22;16962;48.646;9.026;2023-04-04T22:45:32;-0.60;99.90
30150;DHT22;16962;48.646;9.026;2023-04-04T22:48:20;-0.70;99.90
30150;DHT22;16962;48.646;9.026;2023-04-04T22:51:13;-0.80;99.90
30150;DHT22;16962;48.646;9.026;2023-04-04T22:54:17;-0.80;99.90
30150;DHT22;16962;48.646;9.026;2023-04-04T22:57:18;-0.70;99.90
30150;DHT22;16962;48.646;9.026;2023-04-04T23:00:18;-0.60;99.90
30150;DHT22;16962;48.646;9.026;2023-04-04T23:03:05;-0.50;99.90
30150;DHT22;16962;48.646;9.026;2023-04-04T23:10:12;-0.50;99.90
30150;DHT22;16962;48.646;9.026;2023-04-04T23:13:03;-0.50;99.90
30150;DHT22;16962;48.646;9.026;2023-04-04T23:16:00;-0.50;99.90
30150;DHT22;16962;48.646;9.026;2023-04-04T23:18:49;-0.60;99.90
30150;DHT22;16962;48.646;9.026;2023-04-04T23:21:42;-0.60;99.90
30150;DHT22;16962;48.646;9.026;2023-04-04T23:24:39;-0.70;99.90
30150;DHT22;16962;48.646;9.026;2023-04-04T23:34:36;-0.60;99.90
30150;DHT22;16962;48.646;9.026;2023-04-04T23:37:24;-0.60;99.90
30150;DHT22;16962;48.646;9.026;2023-04-04T23:40:14;-0.60;99.90
30150;DHT22;16962;48.646;9.026;2023-04-04T23:43:25;-0.70;99.90
30150;DHT22;16962;48.646;9.026;2023-04-04T23:46:15;-0.70;99.90
30150;DHT22;16962;48.646;9.026;2023-04-04T23:49:04;-0.70;99.90
30150;DHT22;16962;48.646;9.026;2023-04-04T23:51:57;-0.80;99.90
30150;DHT22;16962;48.646;9.026;2023-04-04T23:54:48;-0.80;99.90
30150;DHT22;16962;48.646;9.026;2023-04-04T23:57:36;-0.90;99.90
